Rackwick, United Kingdom
Current Conditions -  °F | °C
As of 9:20 AM on Wednesday 22 Oct 2014 (Local Time) from EGPA Reporting Station
Rain Showers Rain Showers  
Wind Chill: 44°   Ceiling: Unl
Heat Index: 48°   Visibility: 6mi
Dew Point: 45°   Wind: 9mph
Humidity: 87%   Direction: 200°SSW
Pressure: 29.88"   Gusts: NA
Location:  58.87°N, 3.38°W
Report Text: EGPA 220820Z 20008KT 9999 VCSH FEW021 SCT028 09/07 Q1012
Loading
Personal Weather Stations






























Interactive Weather Map
Tropical Storm Tracking
New forecast layout! Learn more

10-Day Weather Forecast

Advertisements
Track Severe Weather on mobile